Strona główna
METAR-TAF:

METAR-TAF

Lotnisko :

Port lotniczy Christchurch

Christchurch, Nowa Zelandia

Szerokość geograficzna: 43-29S, Długość geograficzna: 172-33E, wysokość: 38 m

Aktualna obserwacja pogody

Raport powstał 34 minut temu, godzina 12:00 UTC
Wiatr 5 kt od północ
Temperatura 2°C
Wilgotność 100%
Ciśnienie 1010 hPa
Widzialność: 0150 m
mgła

METAR: NZCH 181200Z AUTO 35005KT 0150 R02/0650U R20/0800U FG VV002 02/02 Q1010 BECMG 2000 BR

czas: 00:34 (12:34 UTC)

Prognoza

Raport powstał 1 godzina i 29 minut temu, godzina 11:05 UTC
Prognoza ważna od 18 godzina 12 UTC do 19 godzina 12 UTC
Wiatr 5 kt od północny wschód
Widzialność 10 km lub więcej
Brak chmur poniżej 1500 m i brak chmur cumulonimbus

TAF: NZCH 181105Z 1812/1912 05005KT CAVOK

Obserwacja i prognoza pogody dla ponad 4000 lotnisk (raport METAR i TAF).

Dostępne stacje oznaczono żółtymi i czerwonymi punktami na mapie.

Najedź kursorem aby zobaczyć nazwę stacji.

Kliknij aby zobaczyć obserwacje i prognozy pogody.

Aby zmienić mapę: kliknij na zielony przycisk z czarnym krzyżykiem, aby powiększyć; na zielony przycisk z myślnikiem, aby pomniejszyć; na zielone strzałki, aby przejść do map sąsiednich.


METAR-TAF: